createdAt,value
2018-08-03T00:01:31.696Z,22.71
2018-08-03T00:04:00.533Z,22.64
2018-08-03T00:06:29.402Z,22.63
2018-08-03T00:08:58.274Z,22.59
2018-08-03T00:11:27.124Z,22.53
2018-08-03T00:13:55.970Z,22.43
2018-08-03T00:16:24.862Z,22.34
2018-08-03T00:18:59.914Z,22.34
2018-08-03T00:21:28.774Z,22.34
2018-08-03T00:23:57.798Z,22.32
2018-08-03T00:26:26.691Z,22.36
2018-08-03T00:28:55.530Z,22.30
2018-08-03T00:31:24.375Z,22.26
2018-08-03T00:33:53.256Z,22.18
2018-08-03T00:36:22.196Z,22.11
2018-08-03T00:38:51.064Z,22.05
2018-08-03T00:41:20.108Z,22.01
2018-08-03T00:43:48.978Z,21.98
2018-08-03T00:46:17.824Z,21.84
2018-08-03T00:48:46.939Z,21.72
2018-08-03T00:51:15.813Z,21.69
2018-08-03T00:53:44.659Z,22.01
2018-08-03T00:56:13.532Z,21.69
2018-08-03T00:58:42.419Z,21.65
2018-08-03T01:01:11.327Z,21.68
2018-08-03T01:03:40.181Z,21.68
2018-08-03T01:06:09.093Z,21.64
2018-08-03T01:08:37.934Z,21.63
2018-08-03T01:11:06.808Z,21.56
2018-08-03T01:13:35.691Z,21.47
2018-08-03T01:16:04.594Z,21.40
2018-08-03T01:18:33.472Z,21.31
2018-08-03T01:21:02.324Z,21.27
2018-08-03T01:23:31.402Z,21.24
2018-08-03T01:26:01.796Z,21.21
2018-08-03T01:28:30.654Z,21.09
2018-08-03T01:30:59.476Z,21.04
2018-08-03T01:33:28.370Z,21.03
2018-08-03T01:35:57.220Z,20.97
2018-08-03T01:38:26.112Z,20.91
2018-08-03T01:40:54.980Z,20.90
2018-08-03T01:43:23.870Z,20.82
2018-08-03T01:45:52.711Z,20.75
2018-08-03T01:48:29.207Z,20.77
2018-08-03T01:50:58.069Z,20.73
2018-08-03T01:53:26.927Z,20.68
2018-08-03T01:55:55.823Z,20.66
2018-08-03T01:58:24.725Z,20.61
2018-08-03T02:00:53.622Z,20.56
2018-08-03T02:03:22.588Z,20.54
2018-08-03T02:05:51.385Z,20.56
2018-08-03T02:08:20.269Z,20.52
2018-08-03T02:10:49.353Z,20.47
2018-08-03T02:13:18.267Z,20.44
2018-08-03T02:15:47.165Z,20.43
2018-08-03T02:18:16.055Z,20.34
2018-08-03T02:20:44.950Z,20.26
2018-08-03T02:23:13.802Z,20.22
2018-08-03T02:25:42.785Z,20.16
2018-08-03T02:28:11.614Z,20.09
2018-08-03T02:30:40.501Z,20.03
2018-08-03T02:33:09.518Z,19.97
2018-08-03T02:35:38.399Z,19.91
2018-08-03T02:38:07.470Z,19.88
2018-08-03T02:40:36.403Z,19.82
2018-08-03T02:43:05.266Z,19.83
2018-08-03T02:45:34.136Z,19.83
2018-08-03T02:48:03.047Z,20.20
2018-08-03T02:50:32.127Z,20.30
2018-08-03T02:53:01.004Z,20.40
2018-08-03T02:55:32.400Z,20.08
2018-08-03T02:58:01.273Z,20.05
2018-08-03T03:00:30.151Z,20.02
2018-08-03T03:02:59.027Z,19.95
2018-08-03T03:05:27.876Z,19.90
2018-08-03T03:07:56.730Z,19.85
2018-08-03T03:10:25.576Z,19.85
2018-08-03T03:12:54.433Z,19.85
2018-08-03T03:15:23.293Z,19.85
2018-08-03T03:17:53.820Z,19.87
2018-08-03T03:20:22.714Z,20.10
2018-08-03T03:22:51.580Z,19.85
2018-08-03T03:25:20.471Z,19.83
2018-08-03T03:27:49.330Z,19.81
2018-08-03T03:30:18.176Z,19.78
2018-08-03T03:32:47.060Z,19.75
2018-08-03T03:35:15.908Z,19.71
2018-08-03T03:37:44.796Z,19.65
2018-08-03T03:40:15.187Z,19.53
2018-08-03T03:42:44.114Z,19.52
2018-08-03T03:45:12.965Z,19.49
2018-08-03T03:47:41.852Z,19.46
2018-08-03T03:50:10.742Z,19.42
2018-08-03T03:52:39.625Z,19.75
2018-08-03T03:55:08.520Z,19.51
2018-08-03T03:57:37.417Z,19.45
2018-08-03T04:00:07.112Z,19.81
2018-08-03T04:02:36.195Z,19.50
2018-08-03T04:05:05.609Z,19.45
2018-08-03T04:07:34.464Z,19.44
2018-08-03T04:10:03.364Z,19.38
2018-08-03T04:12:32.402Z,19.37
2018-08-03T04:15:01.342Z,19.35
2018-08-03T04:17:30.204Z,19.34
2018-08-03T04:19:59.092Z,19.29
2018-08-03T04:22:27.959Z,19.19
2018-08-03T04:24:59.971Z,19.19
2018-08-03T04:27:28.835Z,19.20
2018-08-03T04:29:57.669Z,19.24
2018-08-03T04:32:26.560Z,19.22
2018-08-03T04:34:55.411Z,19.20
2018-08-03T04:37:24.300Z,19.22
2018-08-03T04:39:53.184Z,19.18
2018-08-03T04:42:22.210Z,19.51
2018-08-03T04:44:50.925Z,19.29
2018-08-03T04:47:19.926Z,19.28
2018-08-03T04:49:48.769Z,19.23
2018-08-03T04:52:17.689Z,19.25
2018-08-03T04:54:46.549Z,19.29
2018-08-03T04:57:15.353Z,19.34
2018-08-03T04:59:44.180Z,19.34
2018-08-03T05:02:13.048Z,19.40
2018-08-03T05:04:41.968Z,19.42
2018-08-03T05:07:10.899Z,19.45
2018-08-03T05:09:39.757Z,19.47
2018-08-03T05:12:09.294Z,19.50
2018-08-03T05:14:38.136Z,19.51
2018-08-03T05:17:06.999Z,19.60
2018-08-03T05:19:35.864Z,19.68
2018-08-03T05:22:04.750Z,19.75
2018-08-03T05:24:33.591Z,19.81
2018-08-03T05:27:02.460Z,19.90
2018-08-03T05:29:32.489Z,19.98
2018-08-03T05:32:01.364Z,20.04
2018-08-03T05:34:30.199Z,20.10
2018-08-03T05:36:59.046Z,20.17
2018-08-03T05:39:27.884Z,20.56
2018-08-03T05:41:56.743Z,20.44
2018-08-03T05:44:25.616Z,20.46
2018-08-03T05:46:54.441Z,20.53
2018-08-03T05:49:23.287Z,20.60
2018-08-03T05:51:52.168Z,20.72
2018-08-03T05:54:21.054Z,20.86
2018-08-03T05:56:49.928Z,20.98
2018-08-03T05:59:18.798Z,21.14
2018-08-03T06:01:47.634Z,21.31
2018-08-03T06:04:16.499Z,21.51
2018-08-03T06:06:45.360Z,21.69
2018-08-03T06:09:14.202Z,21.85
2018-08-03T06:11:43.086Z,21.99
2018-08-03T06:14:12.092Z,22.19
2018-08-03T06:16:40.943Z,22.47
2018-08-03T06:19:09.783Z,22.76
2018-08-03T06:21:38.627Z,23.03
2018-08-03T06:24:07.514Z,23.46
2018-08-03T06:26:36.329Z,24.96
2018-08-03T06:29:05.207Z,27.07
2018-08-03T06:31:34.099Z,28.73
2018-08-03T06:34:02.973Z,29.66
2018-08-03T06:36:35.035Z,31.20
2018-08-03T06:39:04.380Z,32.07
2018-08-03T06:41:33.261Z,33.02
2018-08-03T06:44:02.118Z,34.20
2018-08-03T06:46:30.955Z,35.15
2018-08-03T06:48:59.896Z,35.95
2018-08-03T06:51:28.730Z,36.53
2018-08-03T06:53:57.696Z,37.26
2018-08-03T06:56:26.590Z,37.61
2018-08-03T06:58:55.442Z,37.99
2018-08-03T07:01:24.275Z,38.20
2018-08-03T07:03:53.365Z,38.36
2018-08-03T07:06:22.225Z,38.89
2018-08-03T07:08:51.046Z,39.17
2018-08-03T07:11:19.908Z,39.62
2018-08-03T07:13:48.741Z,40.11
2018-08-03T07:16:17.595Z,40.62
2018-08-03T07:18:46.477Z,41.11
2018-08-03T07:21:15.590Z,40.67
2018-08-03T07:23:44.460Z,41.24
2018-08-03T07:26:13.291Z,41.64
2018-08-03T07:28:42.209Z,42.13
2018-08-03T07:31:11.058Z,42.27
2018-08-03T07:33:39.897Z,42.38
2018-08-03T07:36:08.747Z,42.16
2018-08-03T07:38:37.600Z,42.75
2018-08-03T07:41:06.416Z,42.73
2018-08-03T07:43:35.496Z,42.87
2018-08-03T07:46:04.266Z,42.83
2018-08-03T07:48:33.112Z,42.85
2018-08-03T07:51:02.543Z,43.23
2018-08-03T07:53:31.665Z,43.04
2018-08-03T07:56:00.619Z,43.06
2018-08-03T07:58:29.479Z,43.68
2018-08-03T08:00:58.381Z,43.99
2018-08-03T08:03:27.264Z,44.00
2018-08-03T08:05:59.105Z,44.57
2018-08-03T08:08:27.982Z,44.70
2018-08-03T08:10:56.881Z,44.65
2018-08-03T08:13:25.761Z,44.84
2018-08-03T08:15:54.676Z,44.66
2018-08-03T08:18:23.562Z,44.75
2018-08-03T08:20:53.053Z,44.57
2018-08-03T08:23:21.899Z,44.01
2018-08-03T08:25:50.726Z,44.71
2018-08-03T08:28:19.713Z,45.16
2018-08-03T08:30:48.560Z,45.43
2018-08-03T08:33:17.451Z,45.05
2018-08-03T08:35:46.299Z,45.63
2018-08-03T08:38:16.147Z,45.56
2018-08-03T08:40:45.037Z,45.30
2018-08-03T08:43:13.887Z,45.23
2018-08-03T08:45:42.741Z,45.18
2018-08-03T08:48:11.714Z,45.43
2018-08-03T08:50:43.472Z,45.10
2018-08-03T08:53:12.335Z,45.19
2018-08-03T08:55:41.182Z,45.28
2018-08-03T08:58:10.041Z,45.39
2018-08-03T09:00:38.887Z,45.69
2018-08-03T09:03:07.842Z,45.54
2018-08-03T09:05:36.750Z,45.90
2018-08-03T09:08:05.625Z,45.92
2018-08-03T09:10:34.541Z,45.66
2018-08-03T09:13:03.649Z,46.42
2018-08-03T09:15:32.394Z,46.40
2018-08-03T09:18:01.292Z,46.27
2018-08-03T09:20:30.231Z,46.33
2018-08-03T09:22:59.204Z,45.80
2018-08-03T09:25:28.115Z,46.43
2018-08-03T09:27:56.972Z,46.07
2018-08-03T09:30:25.925Z,45.61
2018-08-03T09:32:55.088Z,46.34
2018-08-03T09:35:24.384Z,46.47
2018-08-03T09:37:53.207Z,46.26
2018-08-03T09:40:22.531Z,46.47
2018-08-03T09:42:51.544Z,46.62
2018-08-03T09:45:20.419Z,46.52
2018-08-03T09:47:49.300Z,46.26
2018-08-03T09:50:18.216Z,45.98
2018-08-03T09:52:47.213Z,46.52
2018-08-03T09:55:16.197Z,46.26
2018-08-03T09:57:45.180Z,46.44
2018-08-03T10:00:16.327Z,46.05
2018-08-03T10:02:46.264Z,46.41
2018-08-03T10:05:15.127Z,45.38
2018-08-03T10:07:44.000Z,45.72
2018-08-03T10:10:12.993Z,45.93
2018-08-03T10:12:41.928Z,45.64
2018-08-03T10:15:10.745Z,46.76
2018-08-03T10:17:39.579Z,46.14
2018-08-03T10:20:08.780Z,45.87
2018-08-03T10:22:38.393Z,45.78
2018-08-03T10:25:07.269Z,45.07
2018-08-03T10:27:36.160Z,45.32
2018-08-03T10:30:05.747Z,45.38
2018-08-03T10:32:35.032Z,45.84
2018-08-03T10:35:04.780Z,45.97
2018-08-03T10:37:33.734Z,45.42
2018-08-03T10:40:09.257Z,45.57
2018-08-03T10:42:38.102Z,44.99
2018-08-03T10:45:06.951Z,44.79
2018-08-03T10:47:35.783Z,44.94
2018-08-03T10:50:04.636Z,44.64
2018-08-03T10:52:33.488Z,44.90
2018-08-03T10:55:02.347Z,45.30
2018-08-03T10:57:31.228Z,45.55
2018-08-03T11:00:00.119Z,45.53
2018-08-03T11:02:29.003Z,45.63
2018-08-03T11:04:57.846Z,45.50
2018-08-03T11:07:26.710Z,45.29
2018-08-03T11:09:55.590Z,45.27
2018-08-03T11:12:24.506Z,45.02
2018-08-03T11:14:53.323Z,45.13
2018-08-03T11:17:22.170Z,45.16
2018-08-03T11:19:51.014Z,44.59
2018-08-03T11:22:19.890Z,44.31
2018-08-03T11:24:48.890Z,44.58
2018-08-03T11:27:17.736Z,44.55
2018-08-03T11:29:46.665Z,44.83
2018-08-03T11:32:15.451Z,44.99
2018-08-03T11:34:44.321Z,45.18
2018-08-03T11:37:13.165Z,44.78
2018-08-03T11:39:42.012Z,44.81
2018-08-03T11:42:10.871Z,44.91
2018-08-03T11:44:40.408Z,44.90
2018-08-03T11:47:10.634Z,44.14
2018-08-03T11:49:40.377Z,44.38
2018-08-03T11:52:10.399Z,44.64
2018-08-03T11:54:40.332Z,44.59
2018-08-03T11:57:09.122Z,44.01
2018-08-03T11:59:37.949Z,43.44
2018-08-03T12:02:06.840Z,43.11
2018-08-03T12:04:35.710Z,42.81
2018-08-03T12:07:04.630Z,41.67
2018-08-03T12:09:33.509Z,41.43
2018-08-03T12:12:02.409Z,41.24
2018-08-03T12:14:31.290Z,41.27
2018-08-03T12:17:00.181Z,40.99
2018-08-03T12:19:29.081Z,40.60
2018-08-03T12:21:58.073Z,40.50
2018-08-03T12:24:27.036Z,40.41
2018-08-03T12:26:55.882Z,40.15
2018-08-03T12:29:24.740Z,39.78
2018-08-03T12:31:53.837Z,39.46
2018-08-03T12:34:22.743Z,39.34
2018-08-03T12:36:51.918Z,39.27
2018-08-03T12:39:21.110Z,39.02
2018-08-03T12:41:50.005Z,39.32
2018-08-03T12:44:19.066Z,39.18
2018-08-03T12:46:47.889Z,39.33
2018-08-03T12:49:17.085Z,39.37
2018-08-03T12:51:46.001Z,39.42
2018-08-03T12:54:14.778Z,39.43
2018-08-03T12:56:43.742Z,39.46
2018-08-03T12:59:12.913Z,39.49
2018-08-03T13:01:41.883Z,39.38
2018-08-03T13:04:10.754Z,39.16
2018-08-03T13:06:39.711Z,38.98
2018-08-03T13:09:08.541Z,38.83
2018-08-03T13:11:37.403Z,38.80
2018-08-03T13:14:06.341Z,38.76
2018-08-03T13:16:35.183Z,38.66
2018-08-03T13:19:04.020Z,38.65
2018-08-03T13:21:37.649Z,38.51
2018-08-03T13:24:06.662Z,38.45
2018-08-03T13:26:35.561Z,38.47
2018-08-03T13:29:04.426Z,38.62
2018-08-03T13:31:33.309Z,38.70
2018-08-03T13:34:02.147Z,38.71
2018-08-03T13:36:31.715Z,38.53
2018-08-03T13:39:00.691Z,38.35
2018-08-03T13:41:29.488Z,38.33
2018-08-03T13:43:58.348Z,38.35
2018-08-03T13:46:27.183Z,38.46
2018-08-03T13:48:56.044Z,38.48
2018-08-03T13:51:24.893Z,38.47
2018-08-03T13:53:55.248Z,38.39
2018-08-03T13:56:24.173Z,38.34
2018-08-03T13:58:53.062Z,38.53
2018-08-03T14:02:17.122Z,38.55
2018-08-03T14:04:46.083Z,38.68
2018-08-03T14:07:14.943Z,38.57
2018-08-03T14:09:43.783Z,38.43
2018-08-03T14:12:12.792Z,38.30
2018-08-03T14:14:42.098Z,38.02
2018-08-03T14:17:11.391Z,37.90
2018-08-03T14:19:40.890Z,37.92
2018-08-03T14:22:09.777Z,37.97
2018-08-03T14:24:38.576Z,38.09
2018-08-03T14:27:07.541Z,38.02
2018-08-03T14:29:36.404Z,38.06
2018-08-03T14:32:05.863Z,37.87
2018-08-03T14:34:34.794Z,37.65
2018-08-03T14:37:03.592Z,37.35
2018-08-03T14:39:32.472Z,37.07
2018-08-03T14:42:01.314Z,36.85
2018-08-03T14:44:30.178Z,36.73
2018-08-03T14:46:59.462Z,36.67
2018-08-03T14:49:28.343Z,36.55
2018-08-03T14:51:57.163Z,36.47
2018-08-03T14:54:26.040Z,36.36
2018-08-03T14:56:55.075Z,36.21
2018-08-03T14:59:24.098Z,36.03
2018-08-03T15:01:53.140Z,35.88
2018-08-03T15:04:22.046Z,35.79
2018-08-03T15:06:50.985Z,35.82
2018-08-03T15:09:19.807Z,35.76
2018-08-03T15:11:48.654Z,35.65
2018-08-03T15:14:17.499Z,35.58
2018-08-03T15:16:46.373Z,35.55
2018-08-03T15:19:18.302Z,35.66
2018-08-03T15:21:47.150Z,35.73
2018-08-03T15:24:16.045Z,35.81
2018-08-03T15:26:44.922Z,35.93
2018-08-03T15:29:13.816Z,35.89
2018-08-03T15:31:42.680Z,35.81
2018-08-03T15:34:11.547Z,35.56
2018-08-03T15:36:40.385Z,35.30
2018-08-03T15:39:10.216Z,35.17
2018-08-03T15:41:39.200Z,35.21
2018-08-03T15:44:08.094Z,35.27
2018-08-03T15:46:37.013Z,35.33
2018-08-03T15:49:05.869Z,35.39
2018-08-03T15:51:34.757Z,35.43
2018-08-03T15:54:03.630Z,35.38
2018-08-03T15:56:32.494Z,35.42
2018-08-03T15:59:01.469Z,35.40
2018-08-03T16:01:30.354Z,35.40
2018-08-03T16:03:59.620Z,35.43
2018-08-03T16:06:28.428Z,35.40
2018-08-03T16:08:57.311Z,35.41
2018-08-03T16:11:26.223Z,35.33
2018-08-03T16:13:55.082Z,35.29
2018-08-03T16:16:23.950Z,35.31
2018-08-03T16:18:52.855Z,35.26
2018-08-03T16:21:21.730Z,35.20
2018-08-03T16:23:50.584Z,35.12
2018-08-03T16:26:19.523Z,35.12
2018-08-03T16:28:48.416Z,35.10
2018-08-03T16:31:17.536Z,35.06
2018-08-03T16:33:46.384Z,35.09
2018-08-03T16:36:15.225Z,35.04
2018-08-03T16:38:44.109Z,34.93
2018-08-03T16:41:12.953Z,34.90
2018-08-03T16:43:42.352Z,34.86
2018-08-03T16:46:11.270Z,34.86
2018-08-03T16:48:40.145Z,34.82
2018-08-03T16:51:09.005Z,34.83
2018-08-03T16:53:37.984Z,34.89
2018-08-03T16:56:06.819Z,34.74
2018-08-03T16:58:35.740Z,34.71
2018-08-03T17:01:04.634Z,34.75
2018-08-03T17:03:33.737Z,34.62
2018-08-03T17:06:02.718Z,34.59
2018-08-03T17:08:31.861Z,34.53
2018-08-03T17:11:07.472Z,34.46
2018-08-03T17:13:36.409Z,34.42
2018-08-03T17:16:06.149Z,34.40
2018-08-03T17:18:35.101Z,34.33
2018-08-03T17:21:04.083Z,34.28
2018-08-03T17:23:33.045Z,34.23
2018-08-03T17:26:02.081Z,34.17
2018-08-03T17:28:30.940Z,34.12
2018-08-03T17:30:59.845Z,34.08
2018-08-03T17:33:28.856Z,34.00
2018-08-03T17:35:57.941Z,33.91
2018-08-03T17:38:26.783Z,33.81
2018-08-03T17:40:55.767Z,33.80
2018-08-03T17:43:24.630Z,33.72
2018-08-03T17:45:53.531Z,33.68
2018-08-03T17:48:22.480Z,33.54
2018-08-03T17:50:51.388Z,33.52
2018-08-03T17:53:20.234Z,33.49
2018-08-03T17:55:49.256Z,33.44
2018-08-03T17:58:18.283Z,33.42
2018-08-03T18:00:47.088Z,33.32
2018-08-03T18:03:16.020Z,33.23
2018-08-03T18:05:45.012Z,33.08
2018-08-03T18:08:14.065Z,33.01
2018-08-03T18:10:43.102Z,32.96
2018-08-03T18:13:12.189Z,32.89
2018-08-03T18:15:41.123Z,32.82
2018-08-03T18:18:10.105Z,32.75
2018-08-03T18:20:38.919Z,32.77
2018-08-03T18:23:07.779Z,32.59
2018-08-03T18:25:36.716Z,32.54
2018-08-03T18:28:05.633Z,32.48
2018-08-03T18:30:34.433Z,32.41
2018-08-03T18:33:03.312Z,32.31
2018-08-03T18:35:32.200Z,32.28
2018-08-03T18:38:01.091Z,32.17
2018-08-03T18:40:33.352Z,32.07
2018-08-03T18:43:02.157Z,31.94
2018-08-03T18:45:30.999Z,31.86
2018-08-03T18:47:59.891Z,31.79
2018-08-03T18:50:28.757Z,31.68
2018-08-03T18:52:57.633Z,31.57
2018-08-03T18:55:26.507Z,31.49
2018-08-03T18:57:55.461Z,31.43
2018-08-03T19:00:24.449Z,31.33
2018-08-03T19:02:53.575Z,31.17
2018-08-03T19:05:22.601Z,31.06
2018-08-03T19:07:51.456Z,31.08
2018-08-03T19:10:20.307Z,30.92
2018-08-03T19:12:49.238Z,30.87
2018-08-03T19:15:18.035Z,30.77
2018-08-03T19:17:46.869Z,30.64
2018-08-03T19:20:15.711Z,30.52
2018-08-03T19:22:44.607Z,30.39
2018-08-03T19:25:13.641Z,30.46
2018-08-03T19:27:42.521Z,30.39
2018-08-03T19:30:11.424Z,30.20
2018-08-03T19:32:40.296Z,30.13
2018-08-03T19:35:09.166Z,30.05
2018-08-03T19:37:38.045Z,29.95
2018-08-03T19:40:07.464Z,29.84
2018-08-03T19:42:36.379Z,29.78
2018-08-03T19:45:06.019Z,29.69
2018-08-03T19:47:34.965Z,29.60
2018-08-03T19:50:03.916Z,29.46
2018-08-03T19:52:32.819Z,29.39
2018-08-03T19:55:01.656Z,29.32
2018-08-03T19:57:30.531Z,29.24
2018-08-03T19:59:59.421Z,29.12
2018-08-03T20:02:28.296Z,28.97
2018-08-03T20:04:57.261Z,28.92
2018-08-03T20:07:26.300Z,28.95
2018-08-03T20:09:55.792Z,28.76
2018-08-03T20:12:25.130Z,28.75
2018-08-03T20:14:54.234Z,28.71
2018-08-03T20:17:23.296Z,28.64
2018-08-03T20:19:52.180Z,28.52
2018-08-03T20:22:21.068Z,28.48
2018-08-03T20:24:49.938Z,28.47
2018-08-03T20:27:18.837Z,28.28
2018-08-03T20:29:47.691Z,28.18
2018-08-03T20:32:16.708Z,28.29
2018-08-03T20:34:45.602Z,28.15
2018-08-03T20:37:14.533Z,28.08
2018-08-03T20:39:43.382Z,28.00
2018-08-03T20:42:12.288Z,27.95
2018-08-03T20:44:41.306Z,27.88
2018-08-03T20:47:10.057Z,27.79
2018-08-03T20:49:38.941Z,27.69
2018-08-03T20:52:10.381Z,27.64
2018-08-03T20:54:39.202Z,27.58
2018-08-03T20:57:08.083Z,27.74
2018-08-03T20:59:36.948Z,27.60
2018-08-03T21:02:05.965Z,27.62
2018-08-03T21:04:35.166Z,27.56
2018-08-03T21:07:04.170Z,27.72
2018-08-03T21:09:33.182Z,27.53
2018-08-03T21:12:02.106Z,27.53
2018-08-03T21:14:31.093Z,27.47
2018-08-03T21:17:00.025Z,27.37
2018-08-03T21:19:29.157Z,27.33
2018-08-03T21:21:58.012Z,27.29
2018-08-03T21:24:26.905Z,27.23
2018-08-03T21:26:55.745Z,27.19
2018-08-03T21:29:24.589Z,27.14
2018-08-03T21:31:53.509Z,27.15
2018-08-03T21:34:22.285Z,27.14
2018-08-03T21:36:51.339Z,27.13
2018-08-03T21:39:20.165Z,27.08
2018-08-03T21:41:49.065Z,26.97
2018-08-03T21:44:17.917Z,26.95
2018-08-03T21:46:46.837Z,26.91
2018-08-03T21:49:15.712Z,26.93
2018-08-03T21:51:44.538Z,26.94
2018-08-03T21:54:13.412Z,27.12
2018-08-03T21:56:42.261Z,26.92
2018-08-03T21:59:11.140Z,26.88
2018-08-03T22:01:40.084Z,26.80
2018-08-03T22:04:09.246Z,26.83
2018-08-03T22:06:38.230Z,26.81
2018-08-03T22:09:08.539Z,26.76
2018-08-03T22:11:37.484Z,26.69
2018-08-03T22:14:06.833Z,26.66
2018-08-03T22:16:35.679Z,26.58
2018-08-03T22:19:04.572Z,26.52
2018-08-03T22:21:33.538Z,26.50
2018-08-03T22:24:02.446Z,26.46
2018-08-03T22:26:31.282Z,26.44
2018-08-03T22:29:00.166Z,26.35
2018-08-03T22:31:29.086Z,26.29
2018-08-03T22:33:57.865Z,26.28
2018-08-03T22:36:26.709Z,26.25
2018-08-03T22:38:55.552Z,26.16
2018-08-03T22:41:30.578Z,26.09
2018-08-03T22:43:59.420Z,26.07
2018-08-03T22:46:28.271Z,26.05
2018-08-03T22:48:57.109Z,26.02
2018-08-03T22:51:25.940Z,26.02
2018-08-03T22:53:55.015Z,25.95
2018-08-03T22:56:23.911Z,25.93
2018-08-03T22:58:52.896Z,25.88
2018-08-03T23:01:21.839Z,25.87
2018-08-03T23:03:53.779Z,25.79
2018-08-03T23:06:22.616Z,25.77
2018-08-03T23:08:51.462Z,25.73
2018-08-03T23:11:20.354Z,25.67
2018-08-03T23:13:49.231Z,25.65
2018-08-03T23:16:18.064Z,25.52
2018-08-03T23:18:47.090Z,25.50
2018-08-03T23:21:15.921Z,25.51
2018-08-03T23:23:44.776Z,25.47
2018-08-03T23:26:13.752Z,25.38
2018-08-03T23:28:42.596Z,25.32
2018-08-03T23:31:11.456Z,25.23
2018-08-03T23:33:40.301Z,25.23
2018-08-03T23:36:09.122Z,25.21
2018-08-03T23:38:37.967Z,25.17
2018-08-03T23:41:06.819Z,25.15
2018-08-03T23:43:35.694Z,25.15
2018-08-03T23:46:04.587Z,25.12
2018-08-03T23:48:51.234Z,25.04
2018-08-03T23:51:20.097Z,25.03
2018-08-03T23:53:48.949Z,24.99
2018-08-03T23:56:17.788Z,24.98
2018-08-03T23:58:46.633Z,24.93
